Time;durP1;ratioP1;P1;durP2;ratioP2;P2;SDS_P1;SDS_P2;PMS_P1;PMS_P2;Temp;Humidity;BMP_temperature;BMP_pressure;BME280_temperature;BME280_humidity;BME280_pressure;Samples;Min_cycle;Max_cycle;Signal;HPM_P1;HPM_P2
2023/12/26 00:02:09;;;;;;;10.30;2.45;;;;;;;5.62;72.62;98814.08;1743939;81;21051;-64
2023/12/26 00:04:37;;;;;;;8.55;2.17;;;;;;;5.62;73.12;98826.31;1743989;82;21031;-65
2023/12/26 00:07:06;;;;;;;9.40;2.75;;;;;;;5.61;72.45;98830.91;1743930;82;21059;-65
2023/12/26 00:09:42;;;;;;;7.22;2.00;;;;;;;5.62;72.70;98839.89;1742440;82;21452;-64
2023/12/26 00:12:09;;;;;;;5.05;1.72;;;;;;;5.60;72.62;98835.19;1698565;84;21076;-65
2023/12/26 00:14:38;;;;;;;6.85;1.72;;;;;;;5.59;72.16;98843.02;1698016;83;21087;-67
2023/12/26 00:17:07;;;;;;;5.22;1.90;;;;;;;5.60;71.80;98846.89;1706024;84;21072;-65
2023/12/26 00:19:36;;;;;;;5.05;1.87;;;;;;;5.61;71.61;98847.20;1706014;83;21080;-67
2023/12/26 00:22:06;;;;;;;5.58;1.80;;;;;;;5.62;71.55;98854.84;1705967;83;21040;-67
2023/12/26 00:24:36;;;;;;;4.47;1.80;;;;;;;5.61;71.96;98849.09;1706253;83;21060;-65
2023/12/26 00:27:05;;;;;;;6.70;2.10;;;;;;;5.60;72.15;98846.89;1706189;83;21056;-67
2023/12/26 00:29:35;;;;;;;6.30;1.98;;;;;;;5.58;72.50;98842.70;1706271;84;21059;-66
2023/12/26 00:32:05;;;;;;;5.83;1.77;;;;;;;5.58;71.84;98850.85;1706081;84;21024;-65
2023/12/26 00:34:35;;;;;;;7.80;1.90;;;;;;;5.57;72.21;98855.45;1706053;83;21079;-67
2023/12/26 00:37:04;;;;;;;4.10;1.62;;;;;;;5.56;72.91;98859.20;1706004;83;21060;-66
2023/12/26 00:39:33;;;;;;;8.13;1.60;;;;;;;5.54;73.13;98850.42;1705984;83;21064;-66
2023/12/26 00:42:03;;;;;;;6.87;1.85;;;;;;;5.52;73.14;98857.94;1706075;83;21080;-66
2023/12/26 00:44:31;;;;;;;4.20;1.42;;;;;;;5.52;73.32;98851.66;1706253;84;21024;-65
2023/12/26 00:47:00;;;;;;;5.22;1.75;;;;;;;5.50;72.13;98872.24;1706213;83;20988;-65
2023/12/26 00:49:29;;;;;;;8.23;1.90;;;;;;;5.50;72.06;98868.16;1697921;84;21052;-66
2023/12/26 00:51:58;;;;;;;4.97;1.57;;;;;;;5.49;71.45;98871.92;1706040;84;22000;-65
2023/12/26 00:54:27;;;;;;;5.50;1.62;;;;;;;5.50;71.38;98875.48;1706041;83;21064;-65
2023/12/26 00:56:56;;;;;;;5.78;1.70;;;;;;;5.48;71.39;98883.83;1706225;83;21025;-64
2023/12/26 00:59:25;;;;;;;6.55;1.65;;;;;;;5.48;71.74;98900.64;1705980;83;21056;-65
2023/12/26 01:01:54;;;;;;;4.97;1.80;;;;;;;5.46;72.45;98901.37;1706053;84;21160;-66
2023/12/26 01:04:22;;;;;;;5.45;1.67;;;;;;;5.44;71.65;98901.57;1706122;83;20996;-65
2023/12/26 01:06:51;;;;;;;8.35;2.42;;;;;;;5.40;71.17;98909.28;1706032;84;21064;-65
2023/12/26 01:09:19;;;;;;;6.15;1.75;;;;;;;5.37;71.13;98904.25;1705986;84;21029;-66
2023/12/26 01:11:48;;;;;;;4.95;1.82;;;;;;;5.34;70.22;98900.58;1705975;82;21088;-68
2023/12/26 01:14:17;;;;;;;9.35;1.80;;;;;;;5.34;70.12;98910.09;1706023;84;21052;-65
2023/12/26 01:16:46;;;;;;;5.42;1.80;;;;;;;5.33;70.26;98910.28;1706022;83;21025;-66
2023/12/26 01:19:16;;;;;;;6.58;1.70;;;;;;;5.33;69.85;98918.44;1706121;84;21032;-65
2023/12/26 01:21:45;;;;;;;6.30;1.60;;;;;;;5.33;69.51;98920.63;1706223;83;21080;-65
2023/12/26 01:24:14;;;;;;;5.70;1.82;;;;;;;5.32;69.67;98933.89;1706073;83;21052;-65
2023/12/26 01:26:43;;;;;;;9.08;2.12;;;;;;;5.30;70.25;98935.13;1706091;83;21100;-66
2023/12/26 01:29:12;;;;;;;5.05;1.92;;;;;;;5.28;69.80;98929.89;1705946;84;21029;-64
2023/12/26 01:31:41;;;;;;;9.55;2.58;;;;;;;5.28;69.52;98929.06;1706103;83;21515;-65
2023/12/26 01:34:09;;;;;;;7.80;1.80;;;;;;;5.28;69.85;98946.19;1706065;83;21028;-65
2023/12/26 01:36:38;;;;;;;7.83;2.12;;;;;;;5.28;69.73;98948.06;1706024;84;21001;-66
2023/12/26 01:39:07;;;;;;;10.00;2.17;;;;;;;5.25;69.73;98946.59;1705915;84;21083;-66
2023/12/26 01:41:36;;;;;;;7.80;1.75;;;;;;;5.24;69.78;98948.14;1706007;83;21092;-64
2023/12/26 01:44:06;;;;;;;4.80;1.60;;;;;;;5.23;69.71;98947.30;1705971;83;21417;-67
2023/12/26 01:46:35;;;;;;;5.05;1.52;;;;;;;5.22;69.82;98949.70;1706022;83;21040;-64
2023/12/26 01:49:05;;;;;;;5.28;1.67;;;;;;;5.20;69.65;98938.20;1705972;84;21024;-69
2023/12/26 01:51:34;;;;;;;7.05;2.00;;;;;;;5.18;69.12;98933.98;1706032;84;21262;-65
2023/12/26 01:54:03;;;;;;;7.72;3.20;;;;;;;5.17;69.08;98949.42;1706020;84;21040;-66
2023/12/26 01:56:32;;;;;;;6.03;2.10;;;;;;;5.17;69.37;98952.14;1705961;83;21036;-67
2023/12/26 01:59:02;;;;;;;6.53;2.02;;;;;;;5.16;69.76;98957.77;1706164;83;21110;-65
2023/12/26 02:01:32;;;;;;;6.55;1.72;;;;;;;5.14;69.88;98960.68;1706152;83;21040;-65
2023/12/26 02:04:00;;;;;;;4.95;1.65;;;;;;;5.13;69.96;98959.52;1706026;83;21115;-66
2023/12/26 02:06:31;;;;;;;7.33;2.12;;;;;;;5.11;70.13;98959.72;1697912;84;21036;-63
2023/12/26 02:08:59;;;;;;;8.63;2.80;;;;;;;5.10;69.90;98966.19;1705913;83;21040;-64
2023/12/26 02:11:28;;;;;;;4.83;2.12;;;;;;;5.09;70.07;98971.30;1726905;81;21024;-65
2023/12/26 02:13:59;;;;;;;5.92;2.10;;;;;;;5.08;69.85;98973.17;1743901;82;21860;-64
2023/12/26 02:16:30;;;;;;;8.15;2.77;;;;;;;5.07;70.04;98974.20;1743831;81;21080;-64
2023/12/26 02:18:58;;;;;;;10.28;3.40;;;;;;;5.06;69.56;98963.55;1743984;81;21004;-63
2023/12/26 02:21:28;;;;;;;7.85;2.67;;;;;;;5.05;69.56;98976.80;1743940;82;21052;-64
2023/12/26 02:23:56;;;;;;;8.53;3.10;;;;;;;5.02;69.63;98975.84;1744005;82;21091;-65
2023/12/26 02:26:28;;;;;;;7.42;2.77;;;;;;;5.01;69.39;98979.58;1743951;82;21456;-65
2023/12/26 02:28:58;;;;;;;7.05;2.55;;;;;;;5.00;69.46;98988.77;1744119;81;21063;-64
2023/12/26 02:31:27;;;;;;;6.80;2.25;;;;;;;4.98;69.22;98992.20;1743906;81;21067;-66
2023/12/26 02:33:56;;;;;;;7.42;2.60;;;;;;;4.98;69.21;98988.13;1743947;81;21032;-65
2023/12/26 02:36:26;;;;;;;7.67;2.72;;;;;;;4.98;69.37;99007.12;1743975;82;21044;-66
2023/12/26 02:38:54;;;;;;;6.20;2.72;;;;;;;4.95;69.24;99012.94;1743815;82;21557;-67
2023/12/26 02:41:23;;;;;;;11.60;2.92;;;;;;;4.95;69.18;99015.14;1744049;82;21055;-65
2023/12/26 02:43:51;;;;;;;6.78;2.22;;;;;;;4.94;69.23;99020.24;1743899;81;21059;-65
2023/12/26 02:46:20;;;;;;;4.65;2.00;;;;;;;4.91;69.34;99019.80;1744107;82;21007;-64
2023/12/26 02:48:48;;;;;;;6.05;2.12;;;;;;;4.87;69.00;99029.36;1725536;81;21098;-65
2023/12/26 02:51:17;;;;;;;7.75;2.25;;;;;;;4.87;69.52;99032.08;1744166;81;21047;-65
2023/12/26 02:53:46;;;;;;;7.62;1.67;;;;;;;4.86;69.95;99046.16;1744028;82;21024;-64
2023/12/26 02:56:15;;;;;;;7.28;1.95;;;;;;;4.84;70.25;99044.16;1743923;82;21079;-65
2023/12/26 02:58:44;;;;;;;8.73;1.90;;;;;;;4.83;70.08;99037.56;1744114;81;20995;-65
2023/12/26 03:01:12;;;;;;;6.62;2.37;;;;;;;4.83;69.92;99045.70;1743916;81;21043;-66
2023/12/26 03:03:41;;;;;;;5.83;2.00;;;;;;;4.84;69.75;99038.73;1744002;81;21075;-66
2023/12/26 03:06:10;;;;;;;6.80;1.98;;;;;;;4.84;69.50;99036.53;1744055;81;21516;-68
2023/12/26 03:08:38;;;;;;;7.58;2.50;;;;;;;4.83;69.69;99039.77;1744010;81;21484;-64
2023/12/26 03:11:07;;;;;;;6.33;1.45;;;;;;;4.82;69.83;99044.87;1733878;82;21088;-66
2023/12/26 03:13:36;;;;;;;8.43;1.98;;;;;;;4.80;69.24;99037.44;1705994;83;22003;-65
2023/12/26 03:16:05;;;;;;;8.73;2.20;;;;;;;4.81;69.50;99058.11;1706273;84;21068;-64
2023/12/26 03:18:34;;;;;;;8.05;1.92;;;;;;;4.81;69.04;99055.40;1706109;83;21048;-66
2023/12/26 03:21:04;;;;;;;9.28;2.17;;;;;;;4.81;68.75;99061.34;1706312;83;21520;-65
2023/12/26 03:23:33;;;;;;;9.85;2.20;;;;;;;4.81;68.69;99066.77;1706087;83;21115;-65
2023/12/26 03:26:02;;;;;;;8.50;1.92;;;;;;;4.81;69.13;99070.32;1706509;83;21060;-66
2023/12/26 03:28:31;;;;;;;5.15;1.80;;;;;;;4.81;68.97;99066.25;1706420;83;21024;-66
2023/12/26 03:31:02;;;;;;;6.80;2.22;;;;;;;4.79;68.87;99083.24;1675285;84;21036;-66
2023/12/26 03:33:31;;;;;;;7.85;2.30;;;;;;;4.78;68.90;99075.62;1706271;84;21043;-66
2023/12/26 03:36:02;;;;;;;7.60;2.05;;;;;;;4.77;69.21;99075.30;1706088;83;21024;-66
2023/12/26 03:38:31;;;;;;;8.33;1.92;;;;;;;4.75;69.31;99097.71;1698071;84;21492;-64
2023/12/26 03:41:00;;;;;;;10.05;2.30;;;;;;;4.76;69.42;99097.20;1706349;84;21056;-66
2023/12/26 03:43:29;;;;;;;6.08;1.92;;;;;;;4.74;69.21;99089.25;1706023;83;21040;-65
2023/12/26 03:45:58;;;;;;;5.78;1.57;;;;;;;4.73;69.33;99093.51;1706067;83;21056;-65
2023/12/26 03:48:26;;;;;;;10.10;2.20;;;;;;;4.72;69.46;99101.33;1706119;83;21117;-65
2023/12/26 03:50:55;;;;;;;12.65;2.95;;;;;;;4.68;69.61;99104.94;1706030;83;21064;-66
2023/12/26 03:53:24;;;;;;;8.63;2.15;;;;;;;4.67;69.42;99107.33;1706052;83;21881;-64
2023/12/26 03:55:53;;;;;;;6.22;1.77;;;;;;;4.67;69.67;99108.68;1705981;83;21065;-65
2023/12/26 03:58:22;;;;;;;4.87;1.72;;;;;;;4.66;69.55;99109.71;1706057;84;20997;-65
2023/12/26 04:00:50;;;;;;;9.70;1.87;;;;;;;4.67;69.60;99114.63;1706336;83;21012;-64
2023/12/26 04:03:20;;;;;;;4.85;1.85;;;;;;;4.67;69.26;99099.19;1706283;83;21032;-66
2023/12/26 04:05:48;;;;;;;8.10;2.10;;;;;;;4.67;69.26;99118.18;1706017;83;21068;-65
2023/12/26 04:08:17;;;;;;;8.18;1.50;;;;;;;4.69;69.24;99116.63;1706128;84;21024;-65
2023/12/26 04:10:46;;;;;;;9.33;2.15;;;;;;;4.68;69.19;99124.44;1706040;83;21072;-65
2023/12/26 04:13:14;;;;;;;7.67;2.12;;;;;;;4.66;69.41;99130.58;1707681;83;21064;-66
2023/12/26 04:15:44;;;;;;;8.15;2.10;;;;;;;4.63;69.29;99125.02;1707521;84;21175;-65
2023/12/26 04:18:13;;;;;;;6.15;1.80;;;;;;;4.64;69.39;99127.21;1707311;84;21043;-66
2023/12/26 04:20:42;;;;;;;6.72;2.27;;;;;;;4.63;69.24;99136.38;1707261;83;21016;-63
2023/12/26 04:23:12;;;;;;;6.85;1.90;;;;;;;4.61;69.29;99127.08;1707394;84;21079;-65
2023/12/26 04:25:41;;;;;;;10.08;2.00;;;;;;;4.61;69.49;99131.15;1707327;83;21506;-64
2023/12/26 04:28:10;;;;;;;6.87;1.57;;;;;;;4.60;69.48;99125.40;1707280;84;21517;-66
2023/12/26 04:30:40;;;;;;;5.83;1.77;;;;;;;4.60;69.14;99126.75;1707385;84;21056;-65
2023/12/26 04:33:10;;;;;;;11.38;1.90;;;;;;;4.58;69.50;99123.39;1707274;83;21067;-65
2023/12/26 04:35:38;;;;;;;9.95;2.05;;;;;;;4.58;69.34;99139.66;1689681;84;21507;-66
2023/12/26 04:38:07;;;;;;;8.50;2.12;;;;;;;4.57;69.22;99129.84;1707357;83;21475;-66
2023/12/26 04:40:36;;;;;;;8.08;1.98;;;;;;;4.57;69.52;99137.14;1707500;84;21040;-66
2023/12/26 04:43:08;;;;;;;10.60;2.33;;;;;;;4.55;69.76;99133.75;1707161;83;21711;-64
2023/12/26 04:45:41;;;;;;;8.48;2.00;;;;;;;4.53;69.75;99136.65;1707290;84;21040;-66
2023/12/26 04:48:09;;;;;;;8.00;2.00;;;;;;;4.51;69.70;99139.23;1707307;84;21051;-66
2023/12/26 04:50:38;;;;;;;8.23;2.08;;;;;;;4.46;69.83;99147.42;1707612;83;21091;-63
2023/12/26 04:53:09;;;;;;;8.58;2.17;;;;;;;4.45;70.04;99153.03;1707266;83;21068;-64
2023/12/26 04:55:38;;;;;;;7.25;2.00;;;;;;;4.41;70.07;99157.99;1707309;84;21521;-66
2023/12/26 04:58:07;;;;;;;7.15;1.55;;;;;;;4.43;69.88;99172.72;1707301;83;21098;-65
2023/12/26 05:00:37;;;;;;;7.42;2.17;;;;;;;4.44;69.75;99156.77;1707490;83;21036;-65
2023/12/26 05:03:07;;;;;;;5.85;1.82;;;;;;;4.44;69.78;99160.84;1707199;84;21222;-66
2023/12/26 05:05:36;;;;;;;8.40;2.10;;;;;;;4.42;69.77;99165.09;1689583;84;21076;-64
2023/12/26 05:08:05;;;;;;;11.50;2.70;;;;;;;4.41;69.58;99181.04;1707422;84;21036;-66
2023/12/26 05:10:34;;;;;;;10.82;2.30;;;;;;;4.41;69.51;99181.56;1707475;83;21135;-65
2023/12/26 05:13:04;;;;;;;6.80;1.92;;;;;;;4.42;69.63;99184.59;1706162;82;21116;-67
2023/12/26 05:15:33;;;;;;;7.03;1.92;;;;;;;4.42;69.17;99188.66;1706012;83;21684;-66
2023/12/26 05:18:03;;;;;;;10.35;2.22;;;;;;;4.43;69.22;99194.41;1706262;83;21077;-66
2023/12/26 05:20:32;;;;;;;10.08;2.00;;;;;;;4.44;69.21;99187.96;1697827;84;21044;-66
2023/12/26 05:23:01;;;;;;;15.98;2.30;;;;;;;4.42;69.10;99192.22;1706009;83;21115;-66
2023/12/26 05:25:30;;;;;;;7.37;2.00;;;;;;;4.42;69.07;99195.44;1706183;83;21021;-66
2023/12/26 05:27:58;;;;;;;8.95;1.85;;;;;;;4.42;69.13;99213.06;1706005;84;21005;-64
2023/12/26 05:30:28;;;;;;;7.50;2.22;;;;;;;4.40;69.12;99210.55;1705916;83;21094;-65
2023/12/26 05:32:57;;;;;;;7.65;2.05;;;;;;;4.38;68.52;99218.03;1706044;83;21049;-66
2023/12/26 05:35:26;;;;;;;6.72;1.90;;;;;;;4.39;68.52;99220.22;1705922;83;21091;-65
2023/12/26 05:37:55;;;;;;;6.95;1.85;;;;;;;4.38;68.68;99223.96;1697851;84;21036;-65
2023/12/26 05:40:24;;;;;;;5.90;1.92;;;;;;;4.39;68.85;99227.00;1706147;83;21005;-64
2023/12/26 05:42:53;;;;;;;6.60;1.80;;;;;;;4.38;68.85;99234.30;1706040;83;21097;-65
2023/12/26 05:45:24;;;;;;;7.12;1.90;;;;;;;4.38;68.62;99230.74;1706125;83;21044;-68
2023/12/26 05:47:53;;;;;;;11.05;2.58;;;;;;;4.38;68.82;99241.08;1705925;83;21048;-66
2023/12/26 05:50:22;;;;;;;6.70;2.10;;;;;;;4.38;68.80;99238.87;1706227;84;21091;-66
2023/12/26 05:52:51;;;;;;;6.40;2.45;;;;;;;4.37;68.88;99243.45;1697992;84;21036;-65
2023/12/26 05:55:20;;;;;;;9.65;2.27;;;;;;;4.36;68.89;99241.77;1675228;84;21147;-66
2023/12/26 05:57:51;;;;;;;8.83;2.42;;;;;;;4.38;69.14;99253.79;1705979;84;21211;-66
2023/12/26 06:00:20;;;;;;;7.55;2.15;;;;;;;4.38;69.42;99259.21;1705915;83;21105;-66
2023/12/26 06:02:49;;;;;;;8.63;2.27;;;;;;;4.38;69.60;99255.98;1706111;83;21064;-66
2023/12/26 06:05:18;;;;;;;8.93;2.20;;;;;;;4.37;69.96;99271.09;1706099;83;21021;-66
2023/12/26 06:07:47;;;;;;;6.47;1.90;;;;;;;4.37;70.09;99264.31;1706138;83;21028;-66
2023/12/26 06:10:16;;;;;;;8.05;2.75;;;;;;;4.36;70.28;99277.02;1705961;83;21556;-66
2023/12/26 06:12:45;;;;;;;7.58;1.98;;;;;;;4.34;70.40;99286.38;1726364;81;21052;-64
2023/12/26 06:15:15;;;;;;;8.80;2.40;;;;;;;4.31;70.77;99293.01;1743833;82;21452;-66
2023/12/26 06:17:44;;;;;;;11.57;2.80;;;;;;;4.32;71.15;99295.20;1744050;81;21035;-66
2023/12/26 06:20:15;;;;;;;8.68;2.90;;;;;;;4.33;71.46;99295.53;1743953;82;21020;-66
2023/12/26 06:22:44;;;;;;;11.80;4.20;;;;;;;4.33;71.79;99304.51;1744153;82;21055;-66
2023/12/26 06:25:14;;;;;;;15.63;7.80;;;;;;;4.32;71.99;99308.25;1743795;81;21487;-65
2023/12/26 06:27:42;;;;;;;18.32;6.70;;;;;;;4.29;72.28;99324.88;1744082;81;21075;-67
2023/12/26 06:30:13;;;;;;;25.17;7.55;;;;;;;4.27;72.50;99328.30;1725431;82;21035;-64
2023/12/26 06:32:42;;;;;;;19.62;6.10;;;;;;;4.24;72.92;99323.23;1744090;82;21055;-66
2023/12/26 06:35:11;;;;;;;17.12;4.75;;;;;;;4.22;73.08;99332.58;1744029;82;21036;-64
2023/12/26 06:37:41;;;;;;;14.43;3.92;;;;;;;4.20;73.42;99340.05;1743848;81;21954;-67
2023/12/26 06:40:11;;;;;;;11.83;3.80;;;;;;;4.20;73.82;99344.97;1725588;82;21553;-66
2023/12/26 06:42:41;;;;;;;18.40;5.58;;;;;;;4.21;74.12;99345.30;1744091;82;21082;-66
2023/12/26 06:45:10;;;;;;;15.43;5.17;;;;;;;4.20;74.51;99345.48;1744053;82;21519;-67
2023/12/26 06:47:40;;;;;;;16.55;5.55;;;;;;;4.19;74.93;99347.86;1743928;81;21476;-66
2023/12/26 06:50:09;;;;;;;17.48;5.25;;;;;;;4.21;75.39;99354.78;1743886;82;21304;-67
2023/12/26 06:52:38;;;;;;;16.12;5.20;;;;;;;4.22;75.79;99354.27;1725838;82;21047;-66
2023/12/26 06:55:08;;;;;;;17.90;5.40;;;;;;;4.21;76.12;99355.30;1743879;82;21099;-66
2023/12/26 06:57:37;;;;;;;16.73;5.35;;;;;;;4.21;76.55;99353.42;1744065;82;21552;-65
2023/12/26 07:00:07;;;;;;;17.50;5.20;;;;;;;4.20;76.99;99359.03;1744118;81;21072;-67
2023/12/26 07:02:36;;;;;;;20.65;5.03;;;;;;;4.19;77.21;99358.70;1744073;82;21071;-65
2023/12/26 07:05:06;;;;;;;10.70;3.90;;;;;;;4.20;77.46;99359.88;1743967;82;21093;-67
2023/12/26 07:07:49;;;;;;;9.83;3.17;;;;;;;4.21;77.56;99364.78;1743870;82;21051;-67
2023/12/26 07:10:25;;;;;;;10.28;3.08;;;;;;;4.23;77.43;99361.37;1743816;82;21464;-66
2023/12/26 07:12:54;;;;;;;12.47;3.27;;;;;;;4.22;77.33;99359.18;1743950;81;21055;-66
2023/12/26 07:15:25;;;;;;;14.15;3.33;;;;;;;4.25;77.26;99363.39;1743791;81;21059;-66
2023/12/26 07:17:54;;;;;;;10.32;2.98;;;;;;;4.27;77.36;99377.61;1744039;81;21534;-66
2023/12/26 07:20:24;;;;;;;9.65;3.62;;;;;;;4.27;77.38;99378.45;1743564;82;21036;-65
2023/12/26 07:22:53;;;;;;;9.98;2.80;;;;;;;4.30;77.36;99394.87;1743869;81;21560;-65
2023/12/26 07:25:22;;;;;;;13.05;4.10;;;;;;;4.32;77.51;99389.59;1743966;81;21067;-66
2023/12/26 07:27:51;;;;;;;12.20;5.35;;;;;;;4.34;77.61;99392.97;1743746;81;21143;-66
2023/12/26 07:30:19;;;;;;;12.05;3.85;;;;;;;4.36;77.80;99392.27;1744017;82;21035;-66
2023/12/26 07:32:48;;;;;;;12.70;3.85;;;;;;;4.38;77.79;99389.38;1743994;82;21521;-65
2023/12/26 07:35:17;;;;;;;10.40;3.50;;;;;;;4.40;77.79;99399.53;1725607;82;21111;-66
2023/12/26 07:37:47;;;;;;;11.22;3.42;;;;;;;4.40;77.87;99399.53;1744200;81;21048;-66
2023/12/26 07:40:16;;;;;;;12.18;3.70;;;;;;;4.40;77.80;99403.08;1743900;82;21521;-65
2023/12/26 07:42:45;;;;;;;12.20;3.67;;;;;;;4.42;77.80;99416.46;1744198;81;21095;-67
2023/12/26 07:45:14;;;;;;;12.10;3.33;;;;;;;4.43;77.49;99423.56;1744253;82;21064;-67
2023/12/26 07:47:42;;;;;;;10.20;3.47;;;;;;;4.45;77.35;99417.45;1743974;82;21440;-66
2023/12/26 07:50:12;;;;;;;13.45;4.90;;;;;;;4.54;77.61;99412.80;1702019;82;21584;-66
2023/12/26 07:52:40;;;;;;;9.63;2.77;;;;;;;4.79;77.87;99425.14;1744089;82;21052;-67
2023/12/26 07:55:15;;;;;;;8.60;3.37;;;;;;;5.09;76.53;99430.08;1743943;82;21028;-65
2023/12/26 07:57:44;;;;;;;12.13;3.22;;;;;;;5.38;75.79;99435.55;1743995;81;21447;-67
2023/12/26 08:00:13;;;;;;;11.40;3.92;;;;;;;5.67;74.16;99431.11;1744106;82;21055;-67
2023/12/26 08:02:43;;;;;;;12.50;3.60;;;;;;;5.85;73.27;99438.86;1743953;81;21011;-66
2023/12/26 08:05:13;;;;;;;10.43;3.92;;;;;;;6.07;72.59;99442.00;1743840;82;21079;-67
2023/12/26 08:07:42;;;;;;;13.18;3.08;;;;;;;6.32;71.72;99435.67;1744121;82;21079;-66
2023/12/26 08:10:11;;;;;;;6.85;2.95;;;;;;;6.50;70.12;99433.85;1743944;82;21086;-66
2023/12/26 08:12:40;;;;;;;14.33;3.47;;;;;;;6.68;69.59;99439.18;1744035;81;21095;-66
2023/12/26 08:15:10;;;;;;;8.75;3.40;;;;;;;6.94;69.39;99441.80;1743808;81;21052;-66
2023/12/26 08:17:39;;;;;;;12.53;3.10;;;;;;;7.08;67.74;99451.75;1744155;81;21024;-66
2023/12/26 08:20:10;;;;;;;12.93;2.98;;;;;;;7.13;67.58;99442.98;1743858;82;21035;-66
2023/12/26 08:22:39;;;;;;;10.18;3.42;;;;;;;7.15;66.92;99443.13;1744104;82;21047;-64
2023/12/26 08:25:09;;;;;;;13.13;3.45;;;;;;;7.12;66.94;99458.48;1743899;81;21562;-65
2023/12/26 08:27:40;;;;;;;10.28;3.00;;;;;;;7.06;66.18;99447.54;1743926;82;21036;-65
2023/12/26 08:30:10;;;;;;;7.72;2.70;;;;;;;6.89;66.26;99453.28;1702751;82;21035;-66
2023/12/26 08:32:39;;;;;;;8.55;3.02;;;;;;;6.76;66.58;99450.97;1743946;82;21126;-64
2023/12/26 08:35:08;;;;;;;11.63;3.12;;;;;;;6.61;66.55;99453.25;1744114;82;21470;-67
2023/12/26 08:37:38;;;;;;;12.53;3.70;;;;;;;6.45;66.93;99447.20;1744081;81;21038;-67
2023/12/26 08:40:08;;;;;;;8.68;3.42;;;;;;;6.31;67.29;99450.31;1725432;82;21074;-66
2023/12/26 08:42:37;;;;;;;13.35;3.50;;;;;;;6.22;67.95;99441.95;1743875;82;21059;-66
2023/12/26 08:45:07;;;;;;;17.10;4.65;;;;;;;6.18;67.84;99432.49;1743826;81;21055;-67
2023/12/26 08:47:38;;;;;;;15.40;3.37;;;;;;;6.09;68.33;99437.73;1744143;82;21004;-64
2023/12/26 08:50:08;;;;;;;15.23;3.30;;;;;;;6.03;68.26;99432.54;1743962;82;21486;-67
2023/12/26 08:52:37;;;;;;;12.43;3.50;;;;;;;5.97;68.25;99445.03;1743972;82;21428;-67
2023/12/26 08:55:07;;;;;;;11.95;3.00;;;;;;;5.92;68.49;99443.41;1743934;82;21454;-64
2023/12/26 08:57:36;;;;;;;13.18;3.62;;;;;;;5.92;68.75;99450.20;1743871;81;21039;-66
2023/12/26 09:00:07;;;;;;;11.83;3.15;;;;;;;5.91;68.62;99449.88;1743794;82;21124;-66
2023/12/26 09:02:36;;;;;;;10.05;2.70;;;;;;;5.92;68.56;99449.36;1714321;82;21464;-64
2023/12/26 09:05:08;;;;;;;8.90;2.30;;;;;;;5.91;68.38;99458.03;1701102;84;21518;-66
2023/12/26 09:07:37;;;;;;;16.00;3.10;;;;;;;5.92;69.00;99454.27;1705887;84;21093;-68
2023/12/26 09:10:07;;;;;;;10.72;2.50;;;;;;;5.97;68.56;99455.06;1703442;84;21088;-67
2023/12/26 09:12:36;;;;;;;12.78;3.27;;;;;;;6.00;68.18;99456.88;1706610;82;21057;-67
2023/12/26 09:15:07;;;;;;;17.98;3.50;;;;;;;6.01;67.42;99455.84;1665133;85;21028;-69
2023/12/26 09:17:37;;;;;;;11.43;2.45;;;;;;;6.04;67.46;99453.26;1678939;85;21068;-68
2023/12/26 09:20:09;;;;;;;12.63;2.42;;;;;;;6.06;67.44;99448.47;1686850;85;21047;-68
2023/12/26 09:22:38;;;;;;;9.08;3.08;;;;;;;6.09;67.54;99451.33;1688215;84;21472;-68
2023/12/26 09:25:08;;;;;;;13.93;3.62;;;;;;;6.11;67.17;99454.17;1688266;84;21210;-68
2023/12/26 09:27:37;;;;;;;10.08;2.55;;;;;;;6.12;67.06;99443.63;1688379;85;21067;-68
2023/12/26 09:30:27;;;;;;;9.05;2.35;;;;;;;6.14;67.19;99448.87;1678585;85;21459;-68
2023/12/26 09:33:17;;;;;;;10.25;3.08;;;;;;;6.17;66.74;99452.05;1685239;85;21228;-68
2023/12/26 09:35:48;;;;;;;9.70;2.83;;;;;;;6.23;66.75;99454.52;1722446;82;21466;-67
2023/12/26 09:38:17;;;;;;;10.65;2.80;;;;;;;6.29;66.44;99459.18;1697618;84;21078;-68
2023/12/26 09:40:47;;;;;;;11.22;3.15;;;;;;;6.35;66.48;99466.56;1704667;84;21536;-69
2023/12/26 09:43:16;;;;;;;14.75;4.58;;;;;;;6.40;66.32;99470.91;1704277;84;21086;-67
2023/12/26 09:45:45;;;;;;;10.15;3.83;;;;;;;6.46;66.43;99478.30;1704538;84;21055;-68
2023/12/26 09:48:15;;;;;;;12.07;2.98;;;;;;;6.49;66.62;99467.02;1684163;84;21089;-68
2023/12/26 09:50:49;;;;;;;13.72;3.62;;;;;;;6.52;66.67;99466.67;1676575;85;21105;-68
2023/12/26 09:53:21;;;;;;;9.68;3.25;;;;;;;6.53;66.06;99465.63;1676775;85;21058;-68
2023/12/26 09:55:51;;;;;;;13.55;3.55;;;;;;;6.53;65.85;99465.63;1676468;84;21090;-68
2023/12/26 09:58:20;;;;;;;14.87;3.92;;;;;;;6.54;66.03;99469.20;1676530;84;21125;-68
2023/12/26 10:00:49;;;;;;;18.52;3.87;;;;;;;6.56;66.27;99467.96;1676351;85;21164;-69
2023/12/26 10:03:19;;;;;;;13.53;3.55;;;;;;;6.58;65.79;99470.48;1676441;85;21134;-67
2023/12/26 10:05:53;;;;;;;11.78;2.83;;;;;;;6.60;65.92;99483.38;1676468;85;21078;-66
2023/12/26 10:08:19;;;;;;;23.70;5.00;;;;;;;6.61;65.67;99479.11;1676113;84;21036;-67
2023/12/26 10:10:50;;;;;;;11.00;2.58;;;;;;;6.63;65.31;99481.63;1658952;84;21118;-70
2023/12/26 10:13:18;;;;;;;9.40;2.65;;;;;;;6.63;65.40;99484.35;1674870;84;21058;-66
2023/12/26 10:15:48;;;;;;;11.00;3.00;;;;;;;6.62;65.39;99483.52;1704478;84;21066;-67
2023/12/26 10:18:18;;;;;;;13.05;2.72;;;;;;;6.64;65.85;99480.59;1697631;84;21066;-66
2023/12/26 10:20:47;;;;;;;8.38;2.45;;;;;;;6.68;66.08;99490.89;1704666;84;21094;-68
2023/12/26 10:23:16;;;;;;;11.50;2.20;;;;;;;6.72;65.17;99494.08;1704620;84;21065;-68
2023/12/26 10:25:45;;;;;;;7.67;2.20;;;;;;;6.75;65.07;99486.88;1697887;84;21054;-68
2023/12/26 10:28:16;;;;;;;11.43;3.00;;;;;;;6.76;65.15;99489.08;1674921;84;21023;-68
2023/12/26 10:30:45;;;;;;;9.33;2.00;;;;;;;6.79;64.74;99485.97;1704476;84;21096;-68
2023/12/26 10:33:16;;;;;;;9.38;2.25;;;;;;;6.84;64.19;99480.77;1704445;84;21167;-68
2023/12/26 10:35:46;;;;;;;20.25;9.03;;;;;;;6.85;63.32;99486.02;1643824;84;21095;-67
2023/12/26 10:38:15;;;;;;;10.82;3.40;;;;;;;6.86;63.64;99482.27;1698590;82;21046;-68
2023/12/26 10:40:44;;;;;;;8.30;2.62;;;;;;;6.88;64.01;99477.47;1698824;82;21092;-67
2023/12/26 10:43:13;;;;;;;8.18;2.58;;;;;;;6.90;64.28;99469.94;1752995;82;21506;-67
2023/12/26 10:45:42;;;;;;;8.78;2.65;;;;;;;6.92;64.12;99465.66;1753090;82;21075;-68
2023/12/26 10:48:11;;;;;;;8.60;2.42;;;;;;;6.94;65.38;99459.50;1752941;82;21048;-67
2023/12/26 10:50:40;;;;;;;8.68;2.42;;;;;;;6.99;65.83;99451.58;1753030;82;21052;-66
2023/12/26 10:53:16;;;;;;;9.25;3.92;;;;;;;7.01;65.03;99452.22;1753037;82;21064;-67
2023/12/26 10:55:46;;;;;;;10.00;2.75;;;;;;;7.03;65.08;99450.14;1752973;82;21064;-67
2023/12/26 10:58:40;;;;;;;10.65;2.47;;;;;;;7.03;65.03;99450.14;1752801;82;21083;-67
2023/12/26 13:54:23;;;;;;;11.85;6.50;;;;;;;6.87;95.17;99329.27;1749775;82;21536;-74
2023/12/26 13:57:48;;;;;;;8.80;5.50;;;;;;;6.89;96.48;99317.66;1718453;83;21124;-75
2023/12/26 14:01:12;;;;;;;15.43;7.65;;;;;;;6.86;97.58;99303.09;1749536;82;21034;-74
2023/12/26 14:04:36;;;;;;;11.45;6.87;;;;;;;6.86;98.76;99302.56;1718371;83;21003;-75
2023/12/26 14:08:05;;;;;;;13.20;7.15;;;;;;;6.87;99.82;99300.69;1749604;82;21589;-76
2023/12/26 14:11:29;;;;;;;15.72;7.70;;;;;;;6.86;100.00;99286.23;1734749;80;21029;-76
2023/12/26 14:14:53;;;;;;;13.10;8.40;;;;;;;6.87;100.00;99273.45;1771290;80;21059;-76
2023/12/26 14:18:18;;;;;;;14.68;7.97;;;;;;;6.87;100.00;99251.67;1771391;80;21029;-77
2023/12/26 14:21:42;;;;;;;13.95;7.78;;;;;;;6.88;100.00;99245.19;1790375;80;21111;-76
2023/12/26 14:25:07;;;;;;;11.08;7.62;;;;;;;6.91;100.00;99236.61;1790601;79;21048;-77
2023/12/26 14:28:31;;;;;;;12.05;7.33;;;;;;;6.92;100.00;99215.16;1790601;79;21350;-76
2023/12/26 14:31:56;;;;;;;12.55;7.97;;;;;;;6.92;100.00;99216.52;1790398;80;21004;-75
2023/12/26 14:35:20;;;;;;;16.42;8.88;;;;;;;6.94;100.00;99226.16;1790895;80;21416;-74
2023/12/26 14:38:45;;;;;;;16.17;9.63;;;;;;;6.96;100.00;99228.67;1790508;80;21016;-75
2023/12/26 14:42:09;;;;;;;17.73;9.60;;;;;;;6.94;100.00;99215.79;1790490;79;21150;-77
2023/12/26 14:45:33;;;;;;;21.85;11.53;;;;;;;6.94;100.00;99207.63;1790371;79;21451;-76
2023/12/26 14:48:58;;;;;;;25.12;13.28;;;;;;;6.96;100.00;99209.62;1790667;80;21009;-76
2023/12/26 14:52:22;;;;;;;25.10;14.20;;;;;;;6.95;100.00;99201.13;1790408;79;21453;-73
2023/12/26 14:55:47;;;;;;;24.18;14.47;;;;;;;6.94;100.00;99200.81;1790588;80;21061;-76
2023/12/26 14:59:12;;;;;;;28.45;16.23;;;;;;;6.95;100.00;99194.33;1790810;79;21040;-76